Lone, Kentucky
Current Conditions -  °F | °C
As of 11:53 AM on Wednesday 26 Nov 2014 (Local Time) from KJKL Reporting Station
Scattered Clouds Scattered Clouds  
Wind Chill:   Ceiling: Unl
Heat Index:   Visibility: 10mi
Dew Point: -2°   Wind: 5mph
Humidity: 58%   Direction: NA
Pressure: 30.04"   Gusts: NA
Location:  37.53°N, 83.6°W
Report Text: KJKL 261653Z AUTO VRB04KT 10SM SCT050 06/M02 A3004 RMK AO2 SLP178 T00611017
Loading
Personal Weather Stations






























Interactive Weather Map New forecast layout! Learn more

10-Day Weather Forecast

Advertisements
Track Severe Weather on mobile